Time;durP1;ratioP1;P1;durP2;ratioP2;P2;SDS_P1;SDS_P2;PMS_P1;PMS_P2;Temp;Humidity;BMP_temperature;BMP_pressure;BME280_temperature;BME280_humidity;BME280_pressure;Samples;Min_cycle;Max_cycle;Signal;HPM_P1;HPM_P2
2023/01/13 00:00:10;;;;;;;19.30;4.22;;;10.70;91.20;;;;;;9183699;19;20045;-70
2023/01/13 00:03:14;;;;;;;12.90;2.13;;;10.60;91.10;;;;;;9182806;19;20352;-70
2023/01/13 00:06:20;;;;;;;12.60;2.33;;;10.60;91.10;;;;;;9182656;19;20046;-68
2023/01/13 00:09:21;;;;;;;26.83;2.85;;;10.60;91.10;;;;;;9182543;19;20040;-70
2023/01/13 00:12:23;;;;;;;21.80;3.60;;;10.60;91.10;;;;;;9180536;19;20025;-70
2023/01/13 00:15:24;;;;;;;12.98;2.58;;;10.60;91.00;;;;;;9181968;19;20379;-70
2023/01/13 00:18:26;;;;;;;20.23;3.28;;;10.50;91.00;;;;;;9180063;19;20010;-69
2023/01/13 00:21:28;;;;;;;23.42;3.55;;;10.50;91.00;;;;;;9182794;19;20014;-70
2023/01/13 00:24:29;;;;;;;33.90;3.20;;;10.40;91.10;;;;;;9182963;19;20026;-70
2023/01/13 00:27:31;;;;;;;28.58;3.30;;;10.40;90.90;;;;;;9182453;19;20015;-70
2023/01/13 00:30:32;;;;;;;15.00;3.15;;;10.40;90.90;;;;;;9183219;19;20365;-70
2023/01/13 00:33:34;;;;;;;20.63;3.10;;;10.30;90.90;;;;;;9182168;19;20031;-70
2023/01/13 00:36:36;;;;;;;19.05;3.53;;;10.30;90.90;;;;;;9181276;19;20514;-69
2023/01/13 00:39:37;;;;;;;22.73;4.07;;;10.30;90.90;;;;;;9182163;19;20472;-70
2023/01/13 00:45:59;;;;;;;17.73;2.80;;;10.30;90.90;;;;;;9181159;19;20015;-70
2023/01/13 00:49:01;;;;;;;18.83;2.72;;;10.20;90.90;;;;;;9180559;19;20017;-70
2023/01/13 00:52:02;;;;;;;19.23;3.40;;;10.20;92.70;;;;;;9180745;19;20014;-70
2023/01/13 00:55:04;;;;;;;19.20;2.70;;;10.20;90.90;;;;;;9176681;19;20034;-70
2023/01/13 00:58:05;;;;;;;18.13;2.80;;;10.20;90.90;;;;;;9179748;19;20018;-70
2023/01/13 01:01:09;;;;;;;20.60;3.40;;;10.20;91.10;;;;;;9180980;19;20483;-70
2023/01/13 01:04:11;;;;;;;19.00;2.83;;;10.20;90.90;;;;;;9180956;19;20019;-70
2023/01/13 01:07:13;;;;;;;14.85;2.40;;;10.10;90.80;;;;;;9180774;19;20019;-69
2023/01/13 01:10:14;;;;;;;20.15;3.25;;;10.10;90.80;;;;;;9179308;19;20010;-69
2023/01/13 01:13:16;;;;;;;22.40;4.22;;;10.10;90.80;;;;;;9178541;19;20360;-69
2023/01/13 01:16:20;;;;;;;29.50;3.85;;;10.10;90.80;;;;;;9180588;19;20015;-69
2023/01/13 01:19:22;;;;;;;30.15;4.32;;;10.10;90.80;;;;;;9180677;19;20018;-70
2023/01/13 01:22:23;;;;;;;20.48;3.40;;;10.00;90.90;;;;;;9180161;19;20626;-69
2023/01/13 01:25:25;;;;;;;24.58;3.40;;;10.00;90.70;;;;;;9180009;19;20014;-69
2023/01/13 01:28:26;;;;;;;25.77;4.70;;;10.00;90.70;;;;;;9180960;19;20035;-69
2023/01/13 01:31:31;;;;;;;25.30;3.42;;;9.90;90.70;;;;;;9180049;19;20351;-69
2023/01/13 01:34:32;;;;;;;29.23;5.05;;;9.90;90.60;;;;;;9180124;19;20019;-69
2023/01/13 01:37:34;;;;;;;40.55;5.80;;;9.90;90.60;;;;;;9179280;19;20017;-69
2023/01/13 01:40:35;;;;;;;19.30;3.65;;;9.80;90.60;;;;;;9179622;19;20019;-69
2023/01/13 01:44:03;;;;;;;27.92;4.30;;;9.80;90.50;;;;;;9179454;19;20011;-69
2023/01/13 01:47:04;;;;;;;23.15;3.38;;;9.80;90.50;;;;;;9177100;19;20022;-69
2023/01/13 01:50:06;;;;;;;28.35;4.22;;;9.80;90.50;;;;;;9177688;19;20010;-69
2023/01/13 01:53:15;;;;;;;32.33;6.10;;;9.70;90.50;;;;;;9176281;19;20022;-69
2023/01/13 01:56:18;;;;;;;30.95;3.28;;;9.70;90.70;;;;;;9179848;19;20035;-69
2023/01/13 01:59:20;;;;;;;18.80;3.35;;;9.70;90.50;;;;;;9179349;19;21014;-69
2023/01/13 02:02:22;;;;;;;28.58;4.35;;;9.70;90.50;;;;;;9178358;19;20007;-69
2023/01/13 02:05:23;;;;;;;34.63;4.97;;;9.70;90.50;;;;;;9179258;19;20017;-69
2023/01/13 02:08:25;;;;;;;28.77;4.75;;;9.60;90.40;;;;;;9178056;19;20578;-69
2023/01/13 02:14:49;;;;;;;25.45;3.90;;;9.60;90.70;;;;;;9179835;19;20018;-68
2023/01/13 02:18:15;;;;;;;23.77;4.63;;;9.50;90.40;;;;;;9176803;19;20015;-69
2023/01/13 02:21:34;;;;;;;22.10;3.40;;;9.50;90.40;;;;;;9178869;19;20026;-69
2023/01/13 02:25:13;;;;;;;28.05;5.15;;;9.50;90.40;;;;;;9176065;19;20027;-69
2023/01/13 02:28:27;;;;;;;26.92;3.97;;;9.50;90.40;;;;;;9177838;19;20006;-69
2023/01/13 02:31:43;;;;;;;32.10;4.47;;;9.50;90.40;;;;;;9178830;19;20023;-69
2023/01/13 02:35:02;;;;;;;23.60;3.30;;;9.50;90.40;;;;;;9178691;19;20124;-69
2023/01/13 02:38:04;;;;;;;30.63;3.80;;;9.50;90.40;;;;;;9174059;19;20030;-68
2023/01/13 02:44:53;;;;;;;;;;;9.40;90.30;;;;;;9178938;19;20128;-69
2023/01/13 02:47:56;;;;;;;34.90;3.50;;;9.40;90.30;;;;;;9177476;19;19915;-69
2023/01/13 02:51:07;;;;;;;;;;;9.40;90.30;;;;;;9178095;19;20019;-69
2023/01/13 02:54:14;;;;;;;31.83;5.38;;;9.30;90.30;;;;;;9172908;19;19929;-68
2023/01/13 02:57:17;;;;;;;29.58;5.03;;;9.30;90.30;;;;;;9176257;19;20014;-68
2023/01/13 03:00:21;;;;;;;30.88;4.95;;;9.30;90.30;;;;;;9176906;19;20017;-69
2023/01/13 03:03:23;;;;;;;45.10;4.47;;;9.30;90.30;;;;;;9176774;19;20006;-69
2023/01/13 03:06:58;;;;;;;28.92;4.28;;;9.30;90.30;;;;;;9176953;19;20050;-69
2023/01/13 03:10:27;;;;;;;36.10;4.88;;;9.20;90.20;;;;;;9175140;19;20729;-69
2023/01/13 03:13:56;;;;;;;25.23;3.42;;;9.20;90.20;;;;;;9174966;19;20029;-68
2023/01/13 03:17:03;;;;;;;28.83;4.28;;;9.20;90.20;;;;;;9175759;19;20022;-68
2023/01/13 03:20:05;;;;;;;34.10;4.38;;;9.20;90.20;;;;;;9176069;19;20014;-68
2023/01/13 03:23:23;;;;;;;34.17;4.53;;;9.20;90.30;;;;;;9176347;19;20010;-68
2023/01/13 03:26:38;;;;;;;28.52;4.45;;;9.10;90.20;;;;;;9176167;19;20025;-68
2023/01/13 03:29:52;;;;;;;23.42;3.22;;;9.10;90.20;;;;;;9176361;19;20124;-68
2023/01/13 03:33:14;;;;;;;;;;;9.10;90.20;;;;;;9176582;19;20014;-68
2023/01/13 03:36:18;;;;;;;25.85;3.85;;;9.10;90.20;;;;;;9174798;19;19938;-68
2023/01/13 03:39:27;;;;;;;35.15;6.18;;;9.10;90.30;;;;;;9171370;19;20042;-68
2023/01/13 03:42:32;;;;;;;30.55;3.72;;;9.10;90.20;;;;;;9175116;19;20423;-68
2023/01/13 03:45:35;;;;;;;37.05;4.97;;;9.10;90.50;;;;;;9175761;19;20015;-68
2023/01/13 03:48:43;;;;;;;33.50;3.88;;;9.10;90.20;;;;;;9180253;19;20574;-68
2023/01/13 03:51:52;;;;;;;30.73;3.78;;;9.10;90.20;;;;;;9183123;19;20487;-68
2023/01/13 03:55:06;;;;;;;35.22;4.28;;;9.10;90.20;;;;;;9178905;19;20026;-68
2023/01/13 03:58:15;;;;;;;38.72;4.85;;;9.10;90.20;;;;;;9181826;19;20014;-68
2023/01/13 04:01:44;;;;;;;26.60;3.65;;;9.10;90.20;;;;;;9183414;19;20078;-68
2023/01/13 04:05:13;;;;;;;23.63;3.75;;;9.10;90.20;;;;;;9183947;19;20515;-69
2023/01/13 04:08:24;;;;;;;24.60;4.25;;;9.10;90.20;;;;;;9182369;19;20374;-68
2023/01/13 04:11:36;;;;;;;28.35;5.13;;;9.10;90.20;;;;;;9181180;19;20046;-68
2023/01/13 04:14:38;;;;;;;32.90;4.13;;;9.10;90.20;;;;;;9183021;19;20387;-68
2023/01/13 04:17:40;;;;;;;26.60;3.97;;;9.10;90.20;;;;;;9182061;19;20018;-68
2023/01/13 04:20:44;;;;;;;27.55;3.75;;;9.10;90.20;;;;;;9182858;19;20349;-68
2023/01/13 04:23:45;;;;;;;;;;;9.10;90.10;;;;;;9183749;19;20018;-68
2023/01/13 04:26:46;;;;;;;35.63;5.03;;;9.10;90.10;;;;;;9180531;19;19919;-68
2023/01/13 04:29:48;;;;;;;36.35;5.50;;;9.10;90.10;;;;;;9182720;19;20039;-68
2023/01/13 04:32:49;;;;;;;33.40;4.68;;;9.10;90.10;;;;;;9182599;19;20014;-68
2023/01/13 04:35:51;;;;;;;32.30;4.40;;;9.10;90.10;;;;;;9179634;19;20037;-68
2023/01/13 04:38:55;;;;;;;29.55;3.97;;;9.10;90.00;;;;;;9179575;19;20041;-68
2023/01/13 04:41:57;;;;;;;23.17;3.95;;;9.00;90.00;;;;;;9182061;19;20023;-68
2023/01/13 04:44:58;;;;;;;20.98;3.60;;;9.10;90.00;;;;;;9181300;19;20011;-68
2023/01/13 04:48:00;;;;;;;28.08;4.40;;;9.00;90.00;;;;;;9182257;19;20015;-68
2023/01/13 04:51:01;;;;;;;27.02;3.38;;;9.00;90.00;;;;;;9181955;19;20018;-69
2023/01/13 04:54:02;;;;;;;33.45;4.95;;;9.00;90.00;;;;;;9175116;19;20081;-68
2023/01/13 04:57:04;;;;;;;35.70;4.35;;;9.00;90.00;;;;;;9180216;19;20447;-68
2023/01/13 05:00:06;;;;;;;30.63;4.35;;;9.00;89.90;;;;;;9178352;19;20082;-69
2023/01/13 05:03:08;;;;;;;40.33;4.93;;;9.00;89.90;;;;;;9181105;19;20033;-68
2023/01/13 05:06:10;;;;;;;28.67;3.72;;;9.00;90.60;;;;;;9180625;19;20019;-68
2023/01/13 05:09:12;;;;;;;24.70;3.85;;;9.00;89.90;;;;;;9180711;19;20497;-68
2023/01/13 05:18:54;;;;;;;22.25;3.70;;;9.00;89.90;;;;;;9178225;19;20040;-69
2023/01/13 05:25:21;;;;;;;25.55;3.58;;;9.00;90.00;;;;;;9180139;19;20052;-69
2023/01/13 05:28:22;;;;;;;29.05;3.30;;;9.00;90.00;;;;;;9180113;19;20018;-68
2023/01/13 05:31:24;;;;;;;34.97;4.20;;;9.10;92.50;;;;;;9178377;19;20031;-67
2023/01/13 05:34:25;;;;;;;18.75;3.15;;;8.70;90.80;;;;;;9180417;19;20082;-69
2023/01/13 05:37:27;;;;;;;27.70;3.55;;;9.00;89.70;;;;;;9179399;19;20495;-68
2023/01/13 05:43:48;;;;;;;33.80;3.20;;;9.00;89.10;;;;;;9180356;19;20026;-69
2023/01/13 05:46:49;;;;;;;27.00;2.85;;;9.00;89.50;;;;;;9178824;19;20014;-68
2023/01/13 05:49:51;;;;;;;27.30;3.10;;;8.90;89.40;;;;;;9179614;19;20023;-68
2023/01/13 05:52:52;;;;;;;21.55;3.60;;;9.00;89.50;;;;;;9176286;19;20427;-68
2023/01/13 05:55:54;;;;;;;20.27;2.50;;;8.90;89.40;;;;;;9179245;19;20023;-69
2023/01/13 05:58:55;;;;;;;23.50;2.80;;;8.90;89.40;;;;;;9176758;19;20103;-68
2023/01/13 06:01:57;;;;;;;22.90;2.72;;;8.90;89.30;;;;;;9179282;19;20046;-69
2023/01/13 06:04:58;;;;;;;24.75;3.17;;;8.80;89.20;;;;;;9179346;19;20018;-69
2023/01/13 06:08:01;;;;;;;16.52;2.65;;;8.90;89.20;;;;;;9178739;19;20472;-67
2023/01/13 06:11:03;;;;;;;20.33;2.67;;;8.80;89.10;;;;;;9176230;19;20011;-68
2023/01/13 06:14:04;;;;;;;21.15;2.60;;;8.80;89.10;;;;;;9178910;19;20052;-68
2023/01/13 06:17:13;;;;;;;15.25;1.88;;;8.80;89.10;;;;;;9177780;19;20014;-68
2023/01/13 06:20:16;;;;;;;21.30;2.25;;;8.80;89.10;;;;;;9178538;19;20037;-68
2023/01/13 06:23:17;;;;;;;10.02;2.08;;;8.70;89.00;;;;;;9179124;19;20019;-68
2023/01/13 06:26:21;;;;;;;10.15;2.40;;;8.70;88.90;;;;;;9176700;19;20044;-68
2023/01/13 06:29:22;;;;;;;8.13;1.80;;;8.70;88.90;;;;;;9178766;19;20014;-68
2023/01/13 06:32:28;;;;;;;25.70;2.45;;;8.70;88.90;;;;;;9179229;19;20014;-68
2023/01/13 06:35:34;;;;;;;9.20;1.80;;;8.60;88.80;;;;;;9178416;19;20010;-68
2023/01/13 06:38:39;;;;;;;21.15;2.20;;;8.60;88.80;;;;;;9175148;19;20015;-68
2023/01/13 06:45:01;;;;;;;16.80;2.30;;;8.60;88.80;;;;;;9178216;19;20025;-68
2023/01/13 06:48:02;;;;;;;14.13;2.17;;;8.60;88.80;;;;;;9177628;19;20025;-68
2023/01/13 06:51:04;;;;;;;13.50;1.83;;;8.60;88.80;;;;;;9177722;19;20023;-68
2023/01/13 06:54:05;;;;;;;13.10;2.67;;;8.60;88.80;;;;;;9173448;19;20505;-68
2023/01/13 06:57:07;;;;;;;19.48;3.05;;;8.60;88.80;;;;;;9176724;19;20018;-68
2023/01/13 07:00:08;;;;;;;11.90;3.10;;;8.70;88.90;;;;;;9177033;19;20016;-68
2023/01/13 07:03:14;;;;;;;16.70;2.17;;;8.70;88.80;;;;;;9177180;19;20029;-68
2023/01/13 07:06:15;;;;;;;;;;;8.70;88.90;;;;;;9177569;19;20038;-68
2023/01/13 07:09:16;;;;;;;18.95;2.10;;;8.70;88.80;;;;;;9175880;19;19926;-69
2023/01/13 07:12:18;;;;;;;18.75;2.63;;;8.70;88.90;;;;;;9175616;19;20022;-68
2023/01/13 07:15:19;;;;;;;15.40;3.53;;;8.70;88.70;;;;;;9176001;19;20022;-69
2023/01/13 07:18:21;;;;;;;15.43;2.20;;;8.80;88.70;;;;;;9174267;19;20010;-69
2023/01/13 07:21:22;;;;;;;12.13;2.30;;;8.80;88.70;;;;;;9176794;19;20089;-69
2023/01/13 07:24:23;;;;;;;19.45;2.38;;;8.80;88.70;;;;;;9182438;19;20050;-67
2023/01/13 07:27:25;;;;;;;13.90;2.58;;;8.80;88.60;;;;;;9183680;19;20841;-69
2023/01/13 07:30:26;;;;;;;17.25;3.15;;;8.80;88.50;;;;;;9183760;19;20018;-68
2023/01/13 07:33:31;;;;;;;14.30;2.20;;;8.90;88.60;;;;;;9184184;19;20038;-69
2023/01/13 07:36:33;;;;;;;11.90;2.17;;;8.90;88.50;;;;;;9184316;19;20434;-69
2023/01/13 07:39:35;;;;;;;19.88;2.80;;;8.90;88.60;;;;;;9181462;19;20084;-68
2023/01/13 07:45:58;;;;;;;26.33;3.67;;;8.90;88.40;;;;;;9184341;19;20022;-68
2023/01/13 07:49:00;;;;;;;21.05;3.08;;;8.90;88.40;;;;;;9183605;19;20384;-69
2023/01/13 07:52:01;;;;;;;14.60;2.40;;;8.90;88.30;;;;;;9183361;19;20047;-69
2023/01/13 07:55:03;;;;;;;16.27;2.25;;;8.90;88.30;;;;;;9178644;19;20017;-69
2023/01/13 07:58:05;;;;;;;21.75;3.03;;;8.90;88.90;;;;;;9181314;19;20090;-67
2023/01/13 08:01:08;;;;;;;12.57;2.78;;;8.90;88.30;;;;;;9180346;19;20018;-68
2023/01/13 08:04:10;;;;;;;25.10;3.20;;;8.90;88.20;;;;;;9176972;19;20026;-68
2023/01/13 08:07:11;;;;;;;16.38;2.70;;;8.90;88.20;;;;;;9181655;19;20614;-69
2023/01/13 08:10:12;;;;;;;16.85;2.75;;;9.00;88.20;;;;;;9182188;19;20019;-68
2023/01/13 08:13:19;;;;;;;21.67;2.88;;;9.00;88.80;;;;;;9183084;19;20101;-69
2023/01/13 08:16:21;;;;;;;17.35;3.72;;;9.00;88.20;;;;;;9182945;19;20022;-68
2023/01/13 08:19:22;;;;;;;20.00;3.42;;;9.00;88.10;;;;;;9177786;19;20019;-68
2023/01/13 08:22:23;;;;;;;16.30;2.90;;;9.00;88.00;;;;;;9182272;19;20018;-68
2023/01/13 08:25:27;;;;;;;20.65;2.88;;;9.00;88.00;;;;;;9182068;19;20010;-68
2023/01/13 08:28:29;;;;;;;16.92;2.83;;;9.00;88.10;;;;;;9182298;19;20022;-67
2023/01/13 08:31:31;;;;;;;31.55;3.85;;;9.00;88.00;;;;;;9181830;19;20015;-68
2023/01/13 08:34:32;;;;;;;25.05;3.20;;;9.00;88.00;;;;;;9179153;19;20014;-69
2023/01/13 08:37:33;;;;;;;22.50;3.42;;;9.00;88.00;;;;;;9179089;19;20022;-67
2023/01/13 08:40:35;;;;;;;22.98;2.75;;;9.00;88.00;;;;;;9182199;19;20022;-68
2023/01/13 08:43:37;;;;;;;18.00;3.85;;;9.10;88.00;;;;;;9174219;19;20038;-69
2023/01/13 08:46:40;;;;;;;20.85;2.47;;;9.00;87.90;;;;;;9173080;19;20022;-68
2023/01/13 08:49:41;;;;;;;19.43;3.60;;;9.10;87.90;;;;;;9174598;19;20023;-69
2023/01/13 08:52:43;;;;;;;21.00;2.55;;;9.10;88.00;;;;;;9172687;19;20026;-68
2023/01/13 08:55:44;;;;;;;15.98;2.92;;;9.10;87.90;;;;;;9180251;19;20033;-68
2023/01/13 08:58:46;;;;;;;24.05;3.05;;;9.10;87.90;;;;;;9170224;19;20047;-67
2023/01/13 09:01:47;;;;;;;26.35;3.40;;;9.10;87.80;;;;;;9170511;19;20042;-67
2023/01/13 09:04:49;;;;;;;21.58;2.67;;;9.10;87.80;;;;;;9174506;19;20038;-68
2023/01/13 09:07:50;;;;;;;22.92;3.80;;;9.10;87.70;;;;;;9175461;19;20050;-68
2023/01/13 09:10:52;;;;;;;15.35;2.35;;;9.10;87.70;;;;;;9169053;19;20039;-67
2023/01/13 09:13:53;;;;;;;19.73;3.63;;;9.10;87.70;;;;;;9170470;19;20026;-68
2023/01/13 09:16:55;;;;;;;20.35;3.50;;;9.10;87.70;;;;;;9173567;19;20014;-68
2023/01/13 09:19:56;;;;;;;22.50;3.17;;;9.10;87.70;;;;;;9176855;19;20398;-68
2023/01/13 09:22:57;;;;;;;18.48;2.95;;;9.10;87.60;;;;;;9171818;19;20021;-68
2023/01/13 09:25:59;;;;;;;18.48;3.15;;;9.10;87.60;;;;;;9171417;19;20023;-68
2023/01/13 09:29:00;;;;;;;22.83;3.05;;;9.20;87.60;;;;;;9165560;19;20025;-69
2023/01/13 09:32:02;;;;;;;16.00;3.28;;;9.20;87.60;;;;;;9168362;19;20025;-68
2023/01/13 09:35:06;;;;;;;18.20;2.88;;;9.20;87.50;;;;;;9168154;19;20051;-68
2023/01/13 09:38:07;;;;;;;18.17;2.70;;;9.20;87.50;;;;;;9168259;19;20022;-68
2023/01/13 09:45:10;;;;;;;18.60;3.75;;;9.20;87.50;;;;;;9161647;19;20018;-69
2023/01/13 09:48:32;;;;;;;23.33;3.65;;;9.20;87.50;;;;;;9166753;19;20112;-69
2023/01/13 09:51:42;;;;;;;24.45;3.85;;;9.30;88.50;;;;;;9167988;19;20788;-69
2023/01/13 09:55:04;;;;;;;24.58;3.65;;;9.20;87.60;;;;;;9163345;19;20023;-69
2023/01/13 09:58:15;;;;;;;27.70;3.13;;;9.20;87.60;;;;;;9163992;19;20025;-69
2023/01/13 10:01:39;;;;;;;22.38;3.15;;;9.20;87.70;;;;;;9166230;19;20030;-69
2023/01/13 10:04:40;;;;;;;25.65;4.13;;;9.10;87.60;;;;;;9166429;19;20030;-69
2023/01/13 10:08:12;;;;;;;25.27;3.00;;;9.10;87.60;;;;;;9161873;19;20056;-68
2023/01/13 10:14:50;;;;;;;22.10;3.47;;;9.10;87.70;;;;;;9164759;19;20010;-68
2023/01/13 10:18:02;;;;;;;28.85;4.20;;;9.10;87.70;;;;;;9165016;19;20065;-68
2023/01/13 10:21:55;;;;;;;21.25;3.03;;;9.10;88.10;;;;;;9167852;19;20022;-68
2023/01/13 10:25:09;;;;;;;22.80;3.40;;;9.00;87.90;;;;;;9164432;19;20115;-68
2023/01/13 10:28:14;;;;;;;27.30;3.60;;;9.00;87.70;;;;;;9168564;19;20029;-68
2023/01/13 10:31:16;;;;;;;28.77;3.78;;;9.00;87.80;;;;;;9162279;19;20018;-68
2023/01/13 10:34:19;;;;;;;29.60;3.83;;;8.90;87.90;;;;;;9164589;19;20471;-68
2023/01/13 10:37:24;;;;;;;32.10;3.45;;;9.00;88.00;;;;;;9164533;19;20018;-68
2023/01/13 10:40:26;;;;;;;16.38;2.65;;;9.00;88.00;;;;;;9157086;19;20448;-68
2023/01/13 10:43:28;;;;;;;17.80;3.10;;;8.90;88.00;;;;;;9167533;19;20517;-68
2023/01/13 10:46:48;;;;;;;21.17;2.88;;;8.90;88.00;;;;;;9166675;19;20354;-68
2023/01/13 10:50:07;;;;;;;21.40;3.03;;;9.00;88.10;;;;;;9171610;19;20011;-68
2023/01/13 10:53:21;;;;;;;24.38;3.92;;;9.00;88.00;;;;;;9167107;19;20018;-69
2023/01/13 10:56:25;;;;;;;27.35;3.10;;;9.00;88.00;;;;;;9165627;19;20042;-69
2023/01/13 10:59:26;;;;;;;23.42;3.55;;;9.00;88.00;;;;;;9161342;19;20014;-69
2023/01/13 11:02:34;;;;;;;15.70;2.67;;;9.00;88.10;;;;;;9165374;19;20029;-69
2023/01/13 11:05:36;;;;;;;22.67;2.85;;;9.00;88.10;;;;;;9167837;19;20558;-69
2023/01/13 11:08:49;;;;;;;15.38;2.75;;;9.00;88.20;;;;;;9165293;19;20022;-69
2023/01/13 11:11:54;;;;;;;16.70;2.92;;;9.00;88.20;;;;;;9165592;19;20022;-69
2023/01/13 11:14:59;;;;;;;15.27;2.30;;;9.10;88.20;;;;;;9170427;19;20358;-69
2023/01/13 11:18:08;;;;;;;17.17;3.17;;;9.10;88.20;;;;;;9166544;19;20023;-69
2023/01/13 11:21:38;;;;;;;22.23;3.40;;;9.10;88.30;;;;;;9168162;19;20011;-68
2023/01/13 11:24:51;;;;;;;19.55;3.17;;;9.10;88.30;;;;;;9167628;19;20014;-69
2023/01/13 11:28:14;;;;;;;27.23;2.88;;;9.10;88.20;;;;;;9167783;19;20031;-67
2023/01/13 11:31:32;;;;;;;28.42;4.13;;;9.20;88.20;;;;;;9168235;19;20238;-69
2023/01/13 11:34:36;;;;;;;18.58;3.00;;;9.20;88.20;;;;;;9168738;19;20014;-69
2023/01/13 11:37:42;;;;;;;17.48;3.30;;;9.20;88.20;;;;;;9167169;19;20360;-69
2023/01/13 11:40:49;;;;;;;22.15;2.92;;;9.30;88.20;;;;;;9165136;19;20014;-69
2023/01/13 11:44:00;;;;;;;25.55;3.22;;;9.20;88.20;;;;;;9168607;19;20022;-69
2023/01/13 11:47:02;;;;;;;17.63;3.17;;;9.30;88.20;;;;;;9168864;19;20019;-68
2023/01/13 11:50:14;;;;;;;26.55;3.85;;;9.30;88.20;;;;;;9168532;19;20025;-69
2023/01/13 11:53:23;;;;;;;28.95;3.58;;;9.30;88.10;;;;;;9163374;19;20025;-68
2023/01/13 11:56:37;;;;;;;13.90;2.38;;;9.30;88.10;;;;;;9165318;19;20010;-68
2023/01/13 11:59:57;;;;;;;17.83;2.83;;;9.40;88.20;;;;;;9162687;19;20014;-68
2023/01/13 12:03:17;;;;;;;19.85;2.40;;;9.40;88.20;;;;;;9160945;19;20015;-68
2023/01/13 12:06:38;;;;;;;34.00;4.10;;;9.30;88.10;;;;;;9160300;19;20035;-69
2023/01/13 12:09:46;;;;;;;18.77;3.13;;;9.40;88.10;;;;;;9171932;19;20014;-69
2023/01/13 12:13:09;;;;;;;16.65;3.17;;;9.30;88.10;;;;;;9175641;19;20022;-69
2023/01/13 12:16:22;;;;;;;16.65;2.85;;;9.40;88.20;;;;;;9171523;19;20029;-68
2023/01/13 12:19:29;;;;;;;14.57;2.00;;;9.40;88.20;;;;;;9172638;19;20018;-69
2023/01/13 12:22:33;;;;;;;22.98;3.00;;;9.40;88.20;;;;;;9170556;19;20010;-68
2023/01/13 12:25:44;;;;;;;23.02;3.80;;;9.40;88.20;;;;;;9172719;19;20030;-68
2023/01/13 12:28:58;;;;;;;20.33;3.65;;;9.40;88.30;;;;;;9170655;19;20683;-69
2023/01/13 12:32:03;;;;;;;22.80;3.00;;;9.40;88.30;;;;;;9169384;19;20034;-69
2023/01/13 12:35:17;;;;;;;25.13;2.92;;;9.40;88.30;;;;;;9172152;19;20018;-68
2023/01/13 12:38:26;;;;;;;15.88;2.78;;;9.50;89.00;;;;;;9171798;19;20505;-69
2023/01/13 12:45:15;;;;;;;17.08;2.45;;;9.50;88.40;;;;;;9171739;19;20014;-69
2023/01/13 12:48:38;;;;;;;;;;;9.50;88.30;;;;;;9174120;19;20034;-69
2023/01/13 12:51:55;;;;;;;25.85;4.50;;;9.60;88.40;;;;;;9173074;19;19923;-68
2023/01/13 12:54:56;;;;;;;31.85;4.75;;;9.50;88.30;;;;;;9169492;19;20380;-68
2023/01/13 12:58:07;;;;;;;16.50;3.67;;;9.60;88.30;;;;;;9168070;19;20022;-69
2023/01/13 13:01:13;;;;;;;24.60;3.13;;;9.50;88.20;;;;;;9174443;19;20018;-69
2023/01/13 13:04:20;;;;;;;17.77;3.22;;;9.60;88.30;;;;;;9174047;19;20018;-69
2023/01/13 13:07:49;;;;;;;16.42;2.80;;;9.60;88.30;;;;;;9176078;19;20031;-68
2023/01/13 13:14:36;;;;;;;18.88;2.50;;;9.60;88.20;;;;;;9178888;19;20014;-69
2023/01/13 13:17:38;;;;;;;19.83;3.72;;;9.60;88.20;;;;;;9175644;19;20015;-68
2023/01/13 13:21:04;;;;;;;23.77;2.78;;;9.60;88.10;;;;;;9175378;19;20025;-68
2023/01/13 13:24:09;;;;;;;32.67;3.65;;;9.60;88.10;;;;;;9168649;19;20056;-68
2023/01/13 13:27:39;;;;;;;23.23;3.10;;;9.60;88.10;;;;;;9165011;19;20018;-68
2023/01/13 13:30:50;;;;;;;21.38;3.00;;;9.60;88.10;;;;;;9159155;19;20042;-68
2023/01/13 13:34:03;;;;;;;20.17;3.03;;;9.60;88.10;;;;;;9170321;19;20021;-68
2023/01/13 13:37:31;;;;;;;19.48;2.60;;;9.60;88.10;;;;;;9171572;19;20030;-68
2023/01/13 13:48:29;;;;;;;12.88;2.50;;;9.60;88.00;;;;;;9174269;19;20010;-68
2023/01/13 13:51:36;;;;;;;26.63;4.07;;;9.60;88.00;;;;;;9177842;19;20042;-68
2023/01/13 13:54:44;;;;;;;18.25;2.92;;;9.50;88.00;;;;;;9172229;19;20018;-68
2023/01/13 13:57:54;;;;;;;23.63;3.70;;;9.50;88.00;;;;;;9172858;19;20078;-68
2023/01/13 14:00:56;;;;;;;11.95;3.25;;;9.50;88.00;;;;;;9177726;19;20014;-68
2023/01/13 14:04:18;;;;;;;22.55;3.28;;;9.60;88.00;;;;;;9179278;19;20172;-68
2023/01/13 14:07:20;;;;;;;24.00;2.70;;;9.50;88.00;;;;;;9179688;19;20017;-68
2023/01/13 14:10:27;;;;;;;16.42;3.47;;;9.50;87.90;;;;;;9177186;19;20443;-68
2023/01/13 14:13:30;;;;;;;22.20;2.80;;;9.50;87.90;;;;;;9177534;19;20086;-68
2023/01/13 14:16:33;;;;;;;22.80;3.08;;;9.50;88.00;;;;;;9177917;19;20107;-68
2023/01/13 14:19:43;;;;;;;14.73;2.30;;;9.50;88.00;;;;;;9175781;19;20420;-68
2023/01/13 14:22:53;;;;;;;11.93;2.05;;;9.50;88.00;;;;;;9176545;19;20019;-68
2023/01/13 14:26:01;;;;;;;13.70;2.53;;;9.50;87.90;;;;;;9178095;19;20014;-68
2023/01/13 14:29:03;;;;;;;25.80;3.00;;;9.50;87.90;;;;;;9178962;19;20022;-68
2023/01/13 14:32:06;;;;;;;10.57;2.22;;;9.50;87.80;;;;;;9174159;19;20700;-68
2023/01/13 14:35:08;;;;;;;14.40;2.20;;;9.50;87.80;;;;;;9177764;19;20014;-68
2023/01/13 14:38:15;;;;;;;14.18;1.73;;;9.50;87.80;;;;;;9176274;19;20018;-68
2023/01/13 14:41:26;;;;;;;17.90;2.97;;;9.50;87.70;;;;;;9178136;19;20043;-68
2023/01/13 14:44:31;;;;;;;11.02;1.98;;;9.50;87.70;;;;;;9177542;19;20360;-68
2023/01/13 14:47:32;;;;;;;18.63;2.03;;;9.50;87.60;;;;;;9177596;19;20391;-68
2023/01/13 14:50:34;;;;;;;19.50;3.72;;;9.50;87.60;;;;;;9177709;19;20598;-68
2023/01/13 14:53:45;;;;;;;13.45;2.08;;;9.50;87.60;;;;;;9171640;19;20034;-68
2023/01/13 14:56:54;;;;;;;10.80;1.88;;;9.50;87.50;;;;;;9177371;19;20034;-68
2023/01/13 15:00:14;;;;;;;12.88;1.50;;;9.50;87.50;;;;;;9173921;19;20010;-68
2023/01/13 15:03:17;;;;;;;14.25;1.90;;;9.50;87.30;;;;;;9169093;19;20019;-68
2023/01/13 15:06:24;;;;;;;22.67;2.30;;;9.50;87.40;;;;;;9169965;19;20455;-68
2023/01/13 15:09:32;;;;;;;10.13;2.22;;;9.50;87.30;;;;;;9169468;19;20027;-68
2023/01/13 15:12:38;;;;;;;17.55;2.15;;;9.50;87.30;;;;;;9170673;19;20047;-68
2023/01/13 15:15:39;;;;;;;14.18;2.55;;;9.50;87.20;;;;;;9170056;19;20454;-68
2023/01/13 15:18:41;;;;;;;11.27;1.95;;;9.50;87.20;;;;;;9167351;19;20360;-68
2023/01/13 15:21:42;;;;;;;16.42;2.45;;;9.50;87.10;;;;;;9169182;19;20018;-68
2023/01/13 15:24:44;;;;;;;9.18;1.70;;;9.50;87.00;;;;;;9169497;19;20042;-68
2023/01/13 15:27:49;;;;;;;17.20;2.42;;;9.50;87.00;;;;;;9167873;19;20018;-68
2023/01/13 15:30:54;;;;;;;9.93;1.60;;;9.50;87.00;;;;;;9168390;19;20513;-68
2023/01/13 15:33:55;;;;;;;26.38;5.45;;;9.60;86.90;;;;;;9166591;19;20015;-68
2023/01/13 15:36:57;;;;;;;22.45;6.47;;;9.60;86.90;;;;;;9164881;19;20022;-68
2023/01/13 15:39:58;;;;;;;19.63;3.47;;;9.60;86.90;;;;;;9159398;19;20014;-68
2023/01/13 15:46:39;;;;;;;18.23;4.55;;;9.60;86.80;;;;;;9177010;19;20031;-68
2023/01/13 15:49:43;;;;;;;23.02;5.38;;;9.60;86.80;;;;;;9175074;19;20035;-68
2023/01/13 15:52:44;;;;;;;33.13;7.90;;;9.50;86.70;;;;;;9170490;19;20015;-68
2023/01/13 15:55:49;;;;;;;19.98;4.85;;;9.50;86.70;;;;;;9176038;19;20022;-68
2023/01/13 15:58:52;;;;;;;34.53;7.38;;;9.50;86.70;;;;;;9174236;19;20602;-68
2023/01/13 16:01:53;;;;;;;27.92;6.13;;;9.50;86.70;;;;;;9176005;19;20026;-68
2023/01/13 16:04:55;;;;;;;58.60;11.98;;;9.40;86.70;;;;;;9175399;19;20631;-68
2023/01/13 16:07:56;;;;;;;41.67;10.27;;;9.40;86.70;;;;;;9176581;19;20038;-68
2023/01/13 16:10:58;;;;;;;16.25;3.70;;;9.40;86.70;;;;;;9172057;19;20510;-68
2023/01/13 16:13:59;;;;;;;25.95;4.47;;;9.30;86.70;;;;;;9173431;19;20039;-68
2023/01/13 16:17:02;;;;;;;24.15;5.20;;;9.30;86.70;;;;;;9174644;19;20015;-67
2023/01/13 16:20:04;;;;;;;31.83;6.90;;;9.30;86.70;;;;;;9169422;19;20757;-67
2023/01/13 16:23:05;;;;;;;40.25;6.28;;;9.30;86.80;;;;;;9168486;19;20423;-68
2023/01/13 16:26:21;;;;;;;20.05;5.57;;;9.30;86.70;;;;;;9166706;19;20071;-68
2023/01/13 16:29:22;;;;;;;16.10;3.83;;;9.30;86.70;;;;;;9174540;19;20487;-68
2023/01/13 16:32:24;;;;;;;28.85;5.60;;;9.30;86.70;;;;;;9175042;19;20054;-68
2023/01/13 16:35:27;;;;;;;30.95;4.68;;;9.20;86.60;;;;;;9175101;19;20014;-68
2023/01/13 16:38:28;;;;;;;33.67;5.60;;;9.20;86.60;;;;;;9173770;19;20029;-68
2023/01/13 16:41:30;;;;;;;21.27;4.68;;;9.20;86.60;;;;;;9173587;19;20027;-68
2023/01/13 16:44:31;;;;;;;24.95;4.50;;;9.20;87.20;;;;;;9176004;19;20015;-68
2023/01/13 16:47:32;;;;;;;19.63;3.38;;;9.20;86.60;;;;;;9172159;19;20026;-68
2023/01/13 16:50:40;;;;;;;15.85;3.95;;;9.10;86.60;;;;;;9169881;19;20011;-68
2023/01/13 16:53:41;;;;;;;13.20;3.38;;;9.10;86.60;;;;;;9170453;19;20039;-68
2023/01/13 16:56:44;;;;;;;15.65;3.03;;;9.10;86.60;;;;;;9171825;19;20118;-68
2023/01/13 16:59:45;;;;;;;20.13;2.90;;;9.10;86.60;;;;;;9172432;19;20420;-68
2023/01/13 17:02:47;;;;;;;15.90;3.00;;;9.10;86.60;;;;;;9171619;19;20014;-68
2023/01/13 17:05:49;;;;;;;17.33;2.65;;;9.10;86.60;;;;;;9174084;19;20026;-68